createdAt,value
2022-09-01T00:00:01.398Z,1.27
2022-09-01T00:02:29.246Z,1.25
2022-09-01T00:04:58.650Z,1.10
2022-09-01T00:07:30.293Z,1.13
2022-09-01T00:09:58.367Z,1.20
2022-09-01T00:12:25.801Z,1.17
2022-09-01T00:14:53.657Z,1.35
2022-09-01T00:17:21.106Z,1.30
2022-09-01T00:19:47.955Z,1.23
2022-09-01T00:22:14.946Z,1.30
2022-09-01T00:24:42.037Z,1.27
2022-09-01T00:27:08.835Z,1.30
2022-09-01T00:29:36.381Z,1.23
2022-09-01T00:32:03.792Z,1.20
2022-09-01T00:34:30.621Z,1.50
2022-09-01T00:36:57.486Z,1.25
2022-09-01T00:39:24.296Z,1.20
2022-09-01T00:41:51.411Z,1.40
2022-09-01T00:44:24.390Z,1.40
2022-09-01T00:46:55.668Z,1.15
2022-09-01T00:49:31.564Z,1.30
2022-09-01T00:52:10.153Z,1.17
2022-09-01T00:54:41.909Z,1.40
2022-09-01T00:57:10.189Z,1.25
2022-09-01T00:59:43.556Z,1.50
2022-09-01T01:02:11.275Z,1.30
2022-09-01T01:04:38.534Z,1.30
2022-09-01T01:07:06.627Z,1.30
2022-09-01T01:09:41.281Z,1.42
2022-09-01T01:14:40.016Z,1.45
2022-09-01T01:17:07.269Z,1.48
2022-09-01T01:20:01.019Z,1.55
2022-09-01T01:23:03.100Z,1.52
2022-09-01T01:25:42.072Z,1.50
2022-09-01T01:28:19.971Z,1.45
2022-09-01T01:30:54.982Z,1.30
2022-09-01T01:33:27.963Z,1.50
2022-09-01T01:35:57.573Z,1.40
2022-09-01T01:38:27.567Z,1.48
2022-09-01T01:40:56.264Z,1.30
2022-09-01T01:43:24.736Z,1.30
2022-09-01T01:45:54.076Z,1.05
2022-09-01T01:48:25.171Z,1.20
2022-09-01T01:50:54.914Z,1.20
2022-09-01T01:53:23.192Z,1.33
2022-09-01T01:55:50.956Z,1.40
2022-09-01T01:58:22.221Z,1.30
2022-09-01T02:00:51.842Z,1.30
2022-09-01T02:03:25.071Z,1.38
2022-09-01T02:05:54.481Z,1.13
2022-09-01T02:08:22.817Z,1.42
2022-09-01T02:10:52.687Z,1.25
2022-09-01T02:13:31.336Z,1.10
2022-09-01T02:16:02.846Z,1.35
2022-09-01T02:18:36.758Z,1.27
2022-09-01T02:21:12.701Z,1.17
2022-09-01T02:23:42.122Z,1.20
2022-09-01T02:26:16.595Z,1.20
2022-09-01T02:28:54.774Z,1.48
2022-09-01T02:31:28.061Z,1.35
2022-09-01T02:33:57.123Z,1.23
2022-09-01T02:36:25.675Z,1.30
2022-09-01T02:38:56.681Z,1.20
2022-09-01T02:41:27.158Z,1.17
2022-09-01T02:43:54.670Z,1.30
2022-09-01T02:46:23.574Z,1.55
2022-09-01T02:48:52.821Z,1.55
2022-09-01T02:51:25.348Z,1.23
2022-09-01T02:53:53.278Z,1.40
2022-09-01T02:56:27.310Z,1.40
2022-09-01T03:01:30.142Z,1.40
2022-09-01T03:04:03.095Z,1.10
2022-09-01T03:06:34.089Z,1.35
2022-09-01T03:09:02.199Z,1.20
2022-09-01T03:11:31.955Z,1.20
2022-09-01T03:13:59.258Z,1.33
2022-09-01T03:16:30.474Z,1.40
2022-09-01T03:18:57.716Z,1.20
2022-09-01T03:21:25.085Z,1.55
2022-09-01T03:23:52.783Z,1.08
2022-09-01T03:26:22.066Z,1.30
2022-09-01T03:28:51.198Z,1.23
2022-09-01T03:31:20.151Z,1.58
2022-09-01T03:33:52.002Z,1.40
2022-09-01T03:36:28.509Z,1.15
2022-09-01T03:38:55.917Z,1.35
2022-09-01T03:41:26.209Z,1.17
2022-09-01T03:43:58.035Z,1.30
2022-09-01T03:46:34.294Z,1.35
2022-09-01T03:49:07.029Z,1.42
2022-09-01T03:51:39.198Z,1.25
2022-09-01T03:54:07.846Z,1.20
2022-09-01T03:56:35.099Z,1.45
2022-09-01T03:59:02.117Z,1.42
2022-09-01T04:01:41.576Z,1.30
2022-09-01T04:04:08.777Z,1.35
2022-09-01T04:06:37.149Z,1.33
2022-09-01T04:09:04.030Z,1.40
2022-09-01T04:11:33.494Z,1.60
2022-09-01T04:14:01.317Z,1.50
2022-09-01T04:16:51.164Z,1.30
2022-09-01T04:19:26.050Z,1.30
2022-09-01T04:21:56.724Z,1.48
2022-09-01T04:24:28.265Z,1.52
2022-09-01T04:27:02.071Z,1.35
2022-09-01T04:29:30.230Z,1.25
2022-09-01T04:32:02.544Z,1.42
2022-09-01T04:34:41.716Z,1.33
2022-09-01T04:37:18.760Z,1.60
2022-09-01T04:39:55.747Z,1.20
2022-09-01T04:42:29.088Z,1.58
2022-09-01T04:44:57.528Z,1.48
2022-09-01T04:47:31.742Z,1.60
2022-09-01T04:50:12.966Z,1.27
2022-09-01T04:52:42.115Z,1.50
2022-09-01T04:55:19.620Z,1.40
2022-09-01T04:57:49.542Z,1.40
2022-09-01T05:00:22.688Z,1.23
2022-09-01T05:02:54.779Z,1.38
2022-09-01T05:05:24.702Z,1.13
2022-09-01T05:07:53.092Z,1.25
2022-09-01T05:10:23.543Z,1.20
2022-09-01T05:13:17.586Z,1.15
2022-09-01T05:15:47.051Z,1.17
2022-09-01T05:18:24.664Z,1.30
2022-09-01T05:20:52.394Z,1.17
2022-09-01T05:23:20.777Z,1.40
2022-09-01T05:25:51.183Z,1.30
2022-09-01T05:28:19.388Z,1.70
2022-09-01T05:30:48.350Z,1.48
2022-09-01T05:33:21.875Z,1.30
2022-09-01T05:35:56.301Z,1.23
2022-09-01T05:38:25.639Z,1.20
2022-09-01T05:40:59.054Z,1.52
2022-09-01T05:43:30.838Z,1.38
2022-09-01T05:46:06.657Z,1.45
2022-09-01T05:48:39.872Z,1.20
2022-09-01T05:51:17.888Z,1.60
2022-09-01T05:53:55.032Z,1.27
2022-09-01T05:56:22.467Z,1.38
2022-09-01T06:01:39.541Z,1.27
2022-09-01T06:04:09.941Z,1.40
2022-09-01T06:07:01.755Z,1.60
2022-09-01T06:09:28.507Z,1.33
2022-09-01T06:11:58.230Z,1.40
2022-09-01T06:14:25.737Z,1.50
2022-09-01T06:16:54.280Z,1.50
2022-09-01T06:19:21.371Z,1.20
2022-09-01T06:21:48.990Z,1.40
2022-09-01T06:24:15.947Z,1.50
2022-09-01T06:26:46.262Z,1.30
2022-09-01T06:29:15.580Z,1.20
2022-09-01T06:31:51.743Z,1.45
2022-09-01T06:34:20.281Z,1.60
2022-09-01T06:36:49.585Z,1.30
2022-09-01T06:39:20.384Z,1.42
2022-09-01T06:41:53.234Z,1.33
2022-09-01T06:44:24.646Z,1.13
2022-09-01T06:49:33.085Z,1.20
2022-09-01T06:52:04.598Z,1.38
2022-09-01T06:54:35.577Z,1.30
2022-09-01T06:59:52.605Z,1.40
2022-09-01T07:02:39.744Z,1.52
2022-09-01T07:08:19.789Z,1.40
2022-09-01T07:12:08.838Z,1.30
2022-09-01T07:16:51.881Z,1.63
2022-09-01T07:19:20.745Z,1.42
2022-09-01T07:22:35.602Z,1.23
2022-09-01T07:25:11.484Z,1.35
2022-09-01T07:27:48.977Z,1.30
2022-09-01T07:30:19.045Z,1.42
2022-09-01T07:32:50.949Z,1.80
2022-09-01T07:35:22.437Z,1.55
2022-09-01T07:43:51.328Z,0.98
2022-09-01T07:46:37.539Z,1.70
2022-09-01T07:51:56.902Z,1.58
2022-09-01T07:54:27.496Z,1.60
2022-09-01T07:56:55.621Z,1.35
2022-09-01T07:59:23.600Z,1.58
2022-09-01T08:01:58.436Z,1.50
2022-09-01T08:04:26.643Z,1.60
2022-09-01T08:06:55.837Z,1.45
2022-09-01T08:09:37.837Z,1.60
2022-09-01T08:12:08.403Z,1.45
2022-09-01T08:14:41.410Z,1.85
2022-09-01T08:17:17.466Z,1.60
2022-09-01T08:19:58.616Z,1.50
2022-09-01T08:23:01.686Z,1.60
2022-09-01T08:25:35.441Z,1.58
2022-09-01T08:28:02.602Z,1.70
2022-09-01T08:30:32.467Z,1.60
2022-09-01T08:33:10.303Z,1.67
2022-09-01T08:35:43.965Z,1.60
2022-09-01T08:38:10.988Z,1.42
2022-09-01T08:40:38.827Z,1.55
2022-09-01T08:43:15.462Z,1.42
2022-09-01T08:45:49.351Z,1.42
2022-09-01T08:51:38.448Z,1.60
2022-09-01T08:54:33.197Z,1.50
2022-09-01T08:57:06.838Z,1.75
2022-09-01T09:02:53.822Z,1.40
2022-09-01T09:05:57.701Z,1.40
2022-09-01T09:08:58.021Z,1.65
2022-09-01T09:12:08.706Z,1.50
2022-09-01T09:14:55.340Z,1.50
2022-09-01T09:17:28.756Z,1.38
2022-09-01T09:19:55.721Z,1.40
2022-09-01T09:22:22.569Z,1.58
2022-09-01T09:25:17.474Z,1.52
2022-09-01T09:27:49.432Z,1.75
2022-09-01T09:30:28.592Z,1.40
2022-09-01T09:35:57.655Z,1.60
2022-09-01T09:38:29.366Z,1.60
2022-09-01T09:41:16.575Z,1.35
2022-09-01T09:44:16.153Z,1.30
2022-09-01T09:46:45.844Z,1.60
2022-09-01T09:49:36.476Z,1.40
2022-09-01T09:52:10.348Z,1.40
2022-09-01T09:54:40.147Z,1.30
2022-09-01T09:57:09.687Z,1.48
2022-09-01T09:59:58.850Z,1.30
2022-09-01T10:02:39.815Z,1.30
2022-09-01T10:05:23.421Z,1.27
2022-09-01T10:07:50.888Z,1.42
2022-09-01T10:10:38.840Z,1.33
2022-09-01T10:13:11.382Z,1.10
2022-09-01T10:15:40.285Z,1.60
2022-09-01T10:18:28.779Z,1.50
2022-09-01T10:21:19.113Z,1.33
2022-09-01T10:23:45.878Z,1.10
2022-09-01T10:26:23.749Z,1.40
2022-09-01T10:29:02.897Z,1.30
2022-09-01T10:31:32.489Z,1.25
2022-09-01T10:34:02.507Z,1.60
2022-09-01T10:36:34.176Z,1.40
2022-09-01T10:39:06.213Z,1.50
2022-09-01T10:42:07.210Z,1.42
2022-09-01T10:44:36.257Z,1.70
2022-09-01T10:47:29.885Z,1.40
2022-09-01T10:50:07.736Z,1.30
2022-09-01T10:52:43.097Z,1.30
2022-09-01T10:55:24.737Z,1.20
2022-09-01T10:57:52.108Z,1.05
2022-09-01T11:00:40.451Z,1.10
2022-09-01T11:06:12.297Z,1.17
2022-09-01T11:08:55.424Z,1.30
2022-09-01T11:11:22.489Z,1.10
2022-09-01T11:13:52.015Z,1.35
2022-09-01T11:16:49.378Z,1.05
2022-09-01T11:19:32.322Z,1.33
2022-09-01T11:22:14.174Z,1.02
2022-09-01T11:24:41.653Z,1.20
2022-09-01T11:27:12.115Z,1.10
2022-09-01T11:30:15.926Z,1.10
2022-09-01T11:32:47.036Z,1.40
2022-09-01T11:35:21.655Z,1.20
2022-09-01T11:37:56.470Z,1.35
2022-09-01T11:40:33.678Z,1.50
2022-09-01T11:43:09.740Z,1.30
2022-09-01T11:45:53.788Z,1.23
2022-09-01T11:48:20.637Z,1.00
2022-09-01T11:51:01.712Z,1.27
2022-09-01T11:53:29.070Z,1.08
2022-09-01T11:56:11.574Z,1.23
2022-09-01T11:58:39.457Z,1.40
2022-09-01T12:01:18.041Z,1.23
2022-09-01T12:03:47.314Z,1.30
2022-09-01T12:06:21.333Z,1.10
2022-09-01T12:09:02.096Z,1.23
2022-09-01T12:11:34.632Z,1.17
2022-09-01T12:14:11.109Z,1.23
2022-09-01T12:16:42.337Z,1.08
2022-09-01T12:19:24.134Z,1.10
2022-09-01T12:22:02.595Z,1.10
2022-09-01T12:24:33.732Z,1.20
2022-09-01T12:27:01.147Z,1.10
2022-09-01T12:29:32.171Z,1.20
2022-09-01T12:32:00.661Z,1.20
2022-09-01T12:34:38.420Z,1.13
2022-09-01T12:37:15.393Z,1.10
2022-09-01T12:39:48.416Z,1.40
2022-09-01T12:42:21.455Z,1.30
2022-09-01T12:44:53.687Z,1.00
2022-09-01T12:47:48.016Z,1.10
2022-09-01T12:50:16.457Z,1.15
2022-09-01T12:52:55.626Z,1.23
2022-09-01T12:58:23.334Z,0.85
2022-09-01T13:01:16.536Z,1.00
2022-09-01T13:04:12.676Z,1.30
2022-09-01T13:06:40.899Z,1.30
2022-09-01T13:09:08.661Z,1.33
2022-09-01T13:14:24.053Z,1.17
2022-09-01T13:16:50.975Z,1.40
2022-09-01T13:19:26.508Z,1.00
2022-09-01T13:21:54.649Z,0.80
2022-09-01T13:24:24.430Z,1.17
2022-09-01T13:29:45.659Z,1.20
2022-09-01T13:32:27.773Z,1.15
2022-09-01T13:34:54.949Z,1.20
2022-09-01T13:37:22.812Z,1.17
2022-09-01T13:39:50.285Z,1.20
2022-09-01T13:42:17.490Z,1.20
2022-09-01T13:44:44.901Z,1.10
2022-09-01T13:50:09.778Z,1.20
2022-09-01T13:52:42.784Z,1.25
2022-09-01T13:55:16.843Z,0.85
2022-09-01T13:57:43.908Z,1.15
2022-09-01T14:00:13.999Z,1.13
2022-09-01T14:02:43.110Z,1.15
2022-09-01T14:05:10.348Z,1.08
2022-09-01T14:07:37.495Z,1.20
2022-09-01T14:10:05.080Z,1.30
2022-09-01T14:12:32.598Z,1.13
2022-09-01T14:15:17.794Z,1.33
2022-09-01T14:17:48.409Z,1.00
2022-09-01T14:20:18.628Z,0.90
2022-09-01T14:22:46.300Z,1.08
2022-09-01T14:25:14.522Z,1.10
2022-09-01T14:27:42.843Z,1.27
2022-09-01T14:30:16.123Z,1.00
2022-09-01T14:32:43.037Z,1.05
2022-09-01T14:35:09.948Z,1.00
2022-09-01T14:37:40.613Z,0.90
2022-09-01T14:40:08.736Z,0.90
2022-09-01T14:42:37.112Z,1.08
2022-09-01T14:45:05.640Z,1.10
2022-09-01T14:47:32.550Z,1.00
2022-09-01T14:50:01.383Z,1.20
2022-09-01T14:52:28.239Z,1.08
2022-09-01T14:54:55.050Z,0.85
2022-09-01T14:57:37.088Z,1.08
2022-09-01T15:00:10.183Z,1.02
2022-09-01T15:02:37.675Z,1.20
2022-09-01T15:05:05.251Z,1.10
2022-09-01T15:07:32.092Z,1.10
2022-09-01T15:09:59.038Z,1.20
2022-09-01T15:12:30.802Z,1.00
2022-09-01T15:14:59.103Z,1.10
2022-09-01T15:17:27.189Z,1.13
2022-09-01T15:19:54.076Z,1.08
2022-09-01T15:22:20.947Z,1.10
2022-09-01T15:24:47.945Z,0.90
2022-09-01T15:27:14.866Z,1.10
2022-09-01T15:29:51.234Z,1.10
2022-09-01T15:32:28.144Z,1.20
2022-09-01T15:34:56.315Z,1.20
2022-09-01T15:37:23.124Z,1.05
2022-09-01T15:39:50.045Z,1.05
2022-09-01T15:42:17.274Z,1.00
2022-09-01T15:44:44.525Z,1.10
2022-09-01T15:47:11.301Z,1.02
2022-09-01T15:49:38.134Z,1.00
2022-09-01T15:52:04.943Z,1.10
2022-09-01T15:54:31.753Z,1.58
2022-09-01T15:56:58.554Z,1.00
2022-09-01T15:59:25.537Z,1.20
2022-09-01T16:01:54.045Z,1.17
2022-09-01T16:04:27.271Z,1.05
2022-09-01T16:06:56.654Z,0.90
2022-09-01T16:09:25.407Z,1.20
2022-09-01T16:11:53.144Z,1.00
2022-09-01T16:14:21.134Z,1.20
2022-09-01T16:17:04.153Z,0.98
2022-09-01T16:19:53.289Z,0.90
2022-09-01T16:22:22.730Z,0.90
2022-09-01T16:24:54.883Z,0.93
2022-09-01T16:27:27.256Z,0.93
2022-09-01T16:29:58.181Z,1.08
2022-09-01T16:32:25.884Z,1.10
2022-09-01T16:34:53.170Z,1.52
2022-09-01T16:37:32.291Z,1.10
2022-09-01T16:40:23.930Z,1.00
2022-09-01T16:43:13.051Z,1.20
2022-09-01T16:46:07.691Z,0.90
2022-09-01T16:51:38.037Z,1.00
2022-09-01T16:54:30.224Z,1.20
2022-09-01T16:57:28.015Z,0.90
2022-09-01T17:00:06.202Z,1.00
2022-09-01T17:02:59.701Z,1.08
2022-09-01T17:05:34.273Z,1.13
2022-09-01T17:08:23.365Z,1.10
2022-09-01T17:10:56.330Z,1.00
2022-09-01T17:13:36.290Z,0.90
2022-09-01T17:16:28.133Z,0.88
2022-09-01T17:19:04.757Z,1.00
2022-09-01T17:21:42.060Z,1.02
2022-09-01T17:24:33.744Z,1.10
2022-09-01T17:27:07.885Z,1.50
2022-09-01T17:29:48.007Z,1.08
2022-09-01T17:32:14.833Z,1.10
2022-09-01T17:35:16.367Z,1.10
2022-09-01T17:38:01.336Z,1.00
2022-09-01T17:40:53.098Z,0.80
2022-09-01T17:43:26.284Z,1.10
2022-09-01T17:46:14.366Z,0.90
2022-09-01T17:48:46.325Z,1.20
2022-09-01T17:51:48.333Z,0.90
2022-09-01T17:54:35.764Z,0.90
2022-09-01T17:57:28.406Z,1.00
2022-09-01T18:00:05.407Z,0.95
2022-09-01T18:02:58.464Z,1.10
2022-09-01T18:05:26.836Z,0.98
2022-09-01T18:08:12.676Z,1.00
2022-09-01T18:11:04.713Z,0.90
2022-09-01T18:13:52.775Z,1.00
2022-09-01T18:16:24.568Z,0.90
2022-09-01T18:18:53.191Z,1.10
2022-09-01T18:21:48.818Z,1.35
2022-09-01T18:24:29.271Z,3.58
2022-09-01T18:26:56.064Z,3.20
2022-09-01T18:29:26.896Z,2.80
2022-09-01T18:32:25.213Z,1.70
2022-09-01T18:35:21.273Z,1.52
2022-09-01T18:38:20.628Z,1.38
2022-09-01T18:41:26.132Z,1.17
2022-09-01T18:44:05.188Z,1.20
2022-09-01T18:46:41.550Z,1.40
2022-09-01T18:49:35.852Z,1.08
2022-09-01T18:52:12.496Z,1.15
2022-09-01T18:54:51.821Z,1.33
2022-09-01T18:57:23.630Z,1.40
2022-09-01T19:00:18.798Z,1.20
2022-09-01T19:03:05.096Z,1.20
2022-09-01T19:05:38.251Z,1.10
2022-09-01T19:08:21.932Z,1.10
2022-09-01T19:11:16.657Z,1.17
2022-09-01T19:14:12.876Z,1.10
2022-09-01T19:16:58.125Z,0.90
2022-09-01T19:19:54.135Z,1.00
2022-09-01T19:22:39.181Z,1.02
2022-09-01T19:25:38.742Z,1.15
2022-09-01T19:28:45.937Z,1.08
2022-09-01T19:31:13.375Z,1.10
2022-09-01T19:33:49.321Z,1.10
2022-09-01T19:36:59.709Z,0.85
2022-09-01T19:39:27.913Z,1.05
2022-09-01T19:42:15.141Z,1.00
2022-09-01T19:45:13.938Z,1.08
2022-09-01T19:47:49.432Z,1.10
2022-09-01T19:50:31.176Z,1.27
2022-09-01T19:53:17.332Z,1.10
2022-09-01T19:55:48.229Z,1.20
2022-09-01T19:58:27.796Z,1.20
2022-09-01T20:00:58.799Z,1.15
2022-09-01T20:03:38.962Z,1.15
2022-09-01T20:06:13.673Z,1.23
2022-09-01T20:08:55.670Z,1.00
2022-09-01T20:11:40.664Z,1.27
2022-09-01T20:14:17.663Z,1.10
2022-09-01T20:16:50.599Z,1.27
2022-09-01T20:19:44.328Z,1.20
2022-09-01T20:22:40.400Z,1.05
2022-09-01T20:25:12.863Z,1.10
2022-09-01T20:28:01.823Z,1.20
2022-09-01T20:30:43.811Z,1.00
2022-09-01T20:33:21.236Z,1.05
2022-09-01T20:36:23.385Z,1.30
2022-09-01T20:39:19.666Z,1.08
2022-09-01T20:42:15.369Z,1.10
2022-09-01T20:44:52.576Z,1.10
2022-09-01T20:47:21.947Z,1.30
2022-09-01T20:49:49.236Z,1.23
2022-09-01T20:52:18.755Z,1.17
2022-09-01T20:54:50.943Z,1.10
2022-09-01T20:57:29.818Z,1.20
2022-09-01T21:00:01.959Z,1.30
2022-09-01T21:02:53.087Z,1.23
2022-09-01T21:05:28.789Z,1.20
2022-09-01T21:08:15.395Z,1.05
2022-09-01T21:10:51.465Z,1.30
2022-09-01T21:13:40.745Z,1.30
2022-09-01T21:16:29.254Z,1.20
2022-09-01T21:19:11.449Z,1.30
2022-09-01T21:22:13.296Z,1.20
2022-09-01T21:24:44.425Z,1.17
2022-09-01T21:27:22.703Z,0.98
2022-09-01T21:29:53.507Z,1.10
2022-09-01T21:32:22.584Z,1.00
2022-09-01T21:34:50.591Z,1.35
2022-09-01T21:37:18.525Z,1.20
2022-09-01T21:39:45.359Z,1.30
2022-09-01T21:42:13.401Z,1.33
2022-09-01T21:44:41.376Z,1.08
2022-09-01T21:47:08.318Z,1.13
2022-09-01T21:49:35.212Z,1.10
2022-09-01T21:52:02.422Z,1.10
2022-09-01T21:54:29.211Z,1.38
2022-09-01T21:56:56.021Z,1.40
2022-09-01T21:59:23.195Z,1.20
2022-09-01T22:01:50.117Z,0.93
2022-09-01T22:04:18.259Z,1.30
2022-09-01T22:06:46.330Z,1.30
2022-09-01T22:09:21.106Z,1.20
2022-09-01T22:11:50.512Z,1.10
2022-09-01T22:14:19.408Z,1.05
2022-09-01T22:16:47.330Z,1.10
2022-09-01T22:19:14.779Z,0.95
2022-09-01T22:21:41.977Z,1.13
2022-09-01T22:24:09.533Z,1.15
2022-09-01T22:26:36.718Z,1.30
2022-09-01T22:29:06.301Z,1.30
2022-09-01T22:31:35.537Z,1.25
2022-09-01T22:34:02.827Z,1.30
2022-09-01T22:36:33.080Z,1.23
2022-09-01T22:39:00.412Z,1.00
2022-09-01T22:41:30.266Z,1.10
2022-09-01T22:43:59.357Z,1.10
2022-09-01T22:46:27.036Z,1.50
2022-09-01T22:48:56.189Z,1.20
2022-09-01T22:51:23.180Z,1.30
2022-09-01T22:53:50.351Z,1.40
2022-09-01T22:56:25.113Z,1.40
2022-09-01T22:58:56.794Z,1.40
2022-09-01T23:01:27.345Z,1.40
2022-09-01T23:03:56.223Z,1.85
2022-09-01T23:06:27.518Z,1.15
